Terminal Aerodrome Forecast
Issued by NWS

Home | Current Version | Previous Version | Text Only | Print | Product List | Glossary On
Versions: 1 2 3 4 5 6 7 8 9 10 11 12 13 14 15 16 17 18
000
FTAK31 PAJN 200000 AAA
TAFAPG
TAF AMD
PAPG 200043Z 2001/2024 21008G18KT 6SM -RA BKN025 OVC050
      WS020/15035KT
     FM200400 16008G18KT 5SM RA BR BKN015 OVC025 WS020/17040KT
     FM200800 11008KT 6SM -SHRA SCT025 OVC040
     FM201400 VRB03KT P6SM -SHRA FEW003 BKN015 OVC040
     FM201700 VRB04KT 5SM -SHRA SCT015 BKN040 OVC060
     FM202100 06005KT P6SM -SHRA SCT025 OVC050
      AMD LTD TO CLD VIS AND WIND 2006/2015=

USA.gov is the U.S. government's official web portal to all federal, state and local government web resources and services.